Time;durP1;ratioP1;P1;durP2;ratioP2;P2;SDS_P1;SDS_P2;PMS_P1;PMS_P2;Temp;Humidity;BMP_temperature;BMP_pressure;BME280_temperature;BME280_humidity;BME280_pressure;Samples;Min_cycle;Max_cycle;Signal;HPM_P1;HPM_P2
2023/07/18 00:00:17;;;;;;;11.82;4.75;;;14.00;99.90;;;;;;5022852;28;20041;-54
2023/07/18 00:02:43;;;;;;;8.63;4.32;;;14.00;99.90;;;;;;5021942;28;20092;-54
2023/07/18 00:05:12;;;;;;;9.50;4.03;;;14.00;99.90;;;;;;5022178;28;20133;-57
2023/07/18 00:07:44;;;;;;;10.70;4.25;;;14.10;99.90;;;;;;5023449;28;20091;-57
2023/07/18 00:10:11;;;;;;;11.60;4.55;;;14.00;99.90;;;;;;5023204;28;20084;-56
2023/07/18 00:12:38;;;;;;;8.48;4.35;;;13.90;99.90;;;;;;5022773;28;20400;-56
2023/07/18 00:15:09;;;;;;;10.88;4.40;;;14.20;99.90;;;;;;5029578;28;20743;-55
2023/07/18 00:17:36;;;;;;;12.07;4.75;;;14.00;99.90;;;;;;5028542;28;20083;-56
2023/07/18 00:20:17;;;;;;;12.88;5.13;;;14.00;99.90;;;;;;5026650;28;20061;-57
2023/07/18 00:22:49;;;;;;;10.70;4.40;;;14.00;99.90;;;;;;5025508;28;20080;-57
2023/07/18 00:25:18;;;;;;;13.10;4.55;;;14.00;99.90;;;;;;5025180;28;20082;-55
2023/07/18 00:27:51;;;;;;;9.32;4.50;;;14.00;99.90;;;;;;5025405;28;20041;-54
2023/07/18 00:30:17;;;;;;;15.07;4.65;;;13.90;99.90;;;;;;5025008;28;20099;-57
2023/07/18 00:32:44;;;;;;;15.90;4.72;;;13.90;99.90;;;;;;5026160;28;20435;-54
2023/07/18 00:35:11;;;;;;;9.95;3.95;;;13.80;99.90;;;;;;5024936;28;20491;-58
2023/07/18 00:37:41;;;;;;;12.95;4.78;;;13.80;99.90;;;;;;5026243;28;20045;-54
2023/07/18 00:40:11;;;;;;;9.15;4.15;;;13.80;99.90;;;;;;5026479;28;20492;-56
2023/07/18 00:42:40;;;;;;;10.02;4.50;;;13.80;99.90;;;;;;5025363;28;20079;-57
2023/07/18 00:45:07;;;;;;;11.68;4.68;;;13.80;99.90;;;;;;5026885;28;20049;-56
2023/07/18 00:47:40;;;;;;;9.52;4.40;;;13.70;99.90;;;;;;5024469;28;20055;-56
2023/07/18 00:50:08;;;;;;;8.85;4.45;;;13.70;99.90;;;;;;5025061;28;20404;-55
2023/07/18 00:52:40;;;;;;;11.55;4.40;;;13.70;99.90;;;;;;5026223;28;20053;-56
2023/07/18 00:55:08;;;;;;;12.23;4.90;;;13.80;99.90;;;;;;5026347;28;20038;-55
2023/07/18 00:57:35;;;;;;;10.60;4.80;;;13.60;99.90;;;;;;5025443;28;20068;-54
2023/07/18 01:00:01;;;;;;;16.60;5.03;;;13.60;99.90;;;;;;5025758;28;20064;-55
2023/07/18 01:02:26;;;;;;;9.73;4.97;;;13.60;99.90;;;;;;5024931;28;20527;-56
2023/07/18 01:04:52;;;;;;;12.73;4.68;;;13.70;99.90;;;;;;5025786;28;20049;-56
2023/07/18 01:07:18;;;;;;;10.43;4.30;;;13.70;99.90;;;;;;5023992;28;20049;-54
2023/07/18 01:09:44;;;;;;;19.42;5.00;;;13.70;99.90;;;;;;5116954;22;20525;-54
2023/07/18 01:12:10;;;;;;;9.57;4.50;;;13.60;99.90;;;;;;5058969;28;20048;-53
2023/07/18 01:14:36;;;;;;;11.55;4.68;;;13.60;99.90;;;;;;5057580;28;20051;-53
2023/07/18 01:17:02;;;;;;;13.52;4.90;;;13.60;99.90;;;;;;5063398;28;20118;-54
2023/07/18 01:19:27;;;;;;;10.25;4.43;;;13.50;99.90;;;;;;5065528;28;20080;-54
2023/07/18 01:21:53;;;;;;;13.20;5.10;;;13.50;99.90;;;;;;5065772;28;20084;-53
2023/07/18 01:24:19;;;;;;;8.43;4.47;;;13.60;99.90;;;;;;5056938;28;20594;-53
2023/07/18 01:26:45;;;;;;;13.48;5.22;;;13.60;99.90;;;;;;5045753;28;20163;-53
2023/07/18 01:29:10;;;;;;;12.70;5.15;;;13.70;99.90;;;;;;5049913;28;20044;-53
2023/07/18 01:31:36;;;;;;;11.75;5.25;;;13.60;99.90;;;;;;5057111;28;20422;-54
2023/07/18 01:34:02;;;;;;;11.00;4.97;;;13.50;99.90;;;;;;5064362;28;20063;-53
2023/07/18 01:36:29;;;;;;;9.85;4.40;;;13.50;99.90;;;;;;5064072;28;20116;-53
2023/07/18 01:38:55;;;;;;;17.08;6.40;;;13.60;99.90;;;;;;5064187;28;20294;-53
2023/07/18 01:41:21;;;;;;;13.35;5.00;;;13.60;99.90;;;;;;5064513;28;20075;-52
2023/07/18 01:43:46;;;;;;;13.15;5.07;;;13.50;99.90;;;;;;5065500;28;20063;-51
2023/07/18 01:46:12;;;;;;;10.80;5.13;;;13.50;99.90;;;;;;5064641;28;20118;-54
2023/07/18 01:48:38;;;;;;;15.85;5.07;;;13.40;99.90;;;;;;5065128;28;20123;-53
2023/07/18 01:51:04;;;;;;;9.40;5.07;;;13.40;99.90;;;;;;5064398;28;20052;-54
2023/07/18 01:53:29;;;;;;;12.88;5.35;;;13.30;99.90;;;;;;5063258;28;20072;-54
2023/07/18 01:55:58;;;;;;;10.35;5.30;;;13.30;99.90;;;;;;5063986;28;20091;-52
2023/07/18 01:58:23;;;;;;;13.65;5.47;;;13.30;99.90;;;;;;5062952;28;20430;-53
2023/07/18 02:00:49;;;;;;;14.25;5.63;;;13.30;99.90;;;;;;5062476;28;20048;-53
2023/07/18 02:03:15;;;;;;;11.25;4.70;;;13.30;99.90;;;;;;5064102;28;20041;-52
2023/07/18 02:05:40;;;;;;;11.80;4.72;;;13.30;99.90;;;;;;5063979;28;20036;-54
2023/07/18 02:08:06;;;;;;;13.00;4.95;;;13.40;99.90;;;;;;5063128;28;20050;-54
2023/07/18 02:10:32;;;;;;;16.40;5.20;;;13.20;99.90;;;;;;5063186;28;20132;-51
2023/07/18 02:13:01;;;;;;;11.02;5.10;;;13.20;99.90;;;;;;5063257;28;20090;-54
2023/07/18 02:15:27;;;;;;;12.27;4.93;;;13.20;99.90;;;;;;5055402;28;20052;-51
2023/07/18 02:17:52;;;;;;;8.70;5.07;;;13.10;99.90;;;;;;5045089;28;20048;-53
2023/07/18 02:20:18;;;;;;;11.43;5.40;;;13.10;99.90;;;;;;5044638;28;20044;-52
2023/07/18 02:22:45;;;;;;;12.95;5.13;;;13.10;99.90;;;;;;5044605;28;20047;-54
2023/07/18 02:25:11;;;;;;;12.88;5.05;;;13.20;99.90;;;;;;5042543;28;20048;-54
2023/07/18 02:27:40;;;;;;;14.18;5.07;;;13.10;99.90;;;;;;5043331;28;20055;-50
2023/07/18 02:30:11;;;;;;;13.07;5.53;;;13.10;99.90;;;;;;5042288;28;20640;-51
2023/07/18 02:32:38;;;;;;;9.18;4.90;;;13.00;99.90;;;;;;5043005;28;20434;-54
2023/07/18 02:35:05;;;;;;;11.65;5.25;;;13.00;99.90;;;;;;5044270;28;20158;-54
2023/07/18 02:37:31;;;;;;;19.20;5.93;;;13.00;99.90;;;;;;5043318;28;20041;-54
2023/07/18 02:39:57;;;;;;;13.68;5.75;;;13.00;99.90;;;;;;5043260;28;20048;-53
2023/07/18 02:42:22;;;;;;;11.88;5.72;;;13.00;99.90;;;;;;5043182;28;20403;-54
2023/07/18 02:44:48;;;;;;;15.75;5.80;;;13.00;99.90;;;;;;5044292;28;20037;-53
2023/07/18 02:47:14;;;;;;;10.85;5.15;;;13.20;99.90;;;;;;5043502;28;20106;-53
2023/07/18 02:49:40;;;;;;;16.83;5.65;;;13.00;99.90;;;;;;5041879;28;20135;-51
2023/07/18 02:52:07;;;;;;;17.40;6.07;;;13.00;99.90;;;;;;5043985;28;20084;-54
2023/07/18 02:54:33;;;;;;;11.85;5.57;;;12.90;99.90;;;;;;5043929;28;20124;-54
2023/07/18 02:56:59;;;;;;;13.68;5.70;;;12.90;99.90;;;;;;5043927;28;20131;-53
2023/07/18 02:59:25;;;;;;;13.88;5.35;;;12.90;99.90;;;;;;5042982;28;20372;-53
2023/07/18 03:01:56;;;;;;;14.07;5.60;;;12.90;99.90;;;;;;5042910;28;20041;-52
2023/07/18 03:04:23;;;;;;;13.43;5.40;;;12.80;99.90;;;;;;5041933;28;20049;-53
2023/07/18 03:06:51;;;;;;;12.57;5.57;;;12.80;99.90;;;;;;5042972;28;20041;-55
2023/07/18 03:09:17;;;;;;;12.32;5.65;;;12.90;99.90;;;;;;5043786;28;20132;-53
2023/07/18 03:11:43;;;;;;;15.32;6.00;;;13.20;99.90;;;;;;5043667;28;20048;-52
2023/07/18 03:14:11;;;;;;;11.32;5.50;;;12.90;99.90;;;;;;5045052;28;20045;-53
2023/07/18 03:16:38;;;;;;;14.57;5.93;;;12.90;99.90;;;;;;5051723;28;20037;-54
2023/07/18 03:19:05;;;;;;;16.23;5.75;;;12.90;99.90;;;;;;5043672;28;20128;-52
2023/07/18 03:21:30;;;;;;;14.38;6.05;;;12.80;99.90;;;;;;5043539;28;20479;-53
2023/07/18 03:23:58;;;;;;;16.73;5.65;;;12.80;99.90;;;;;;5042886;28;20083;-52
2023/07/18 03:26:23;;;;;;;12.73;5.63;;;12.90;99.90;;;;;;5043439;28;20631;-50
2023/07/18 03:28:49;;;;;;;16.70;6.07;;;12.80;99.90;;;;;;5043161;28;20045;-53
2023/07/18 03:31:15;;;;;;;14.50;5.85;;;12.90;99.90;;;;;;5041997;28;20044;-52
2023/07/18 03:33:41;;;;;;;16.35;5.85;;;12.80;99.90;;;;;;5042743;28;20553;-52
2023/07/18 03:36:07;;;;;;;14.57;6.63;;;12.80;99.90;;;;;;5041770;28;20037;-50
2023/07/18 03:38:33;;;;;;;14.50;5.57;;;12.90;99.90;;;;;;5043364;28;20124;-54
2023/07/18 03:40:58;;;;;;;12.40;6.18;;;12.90;99.90;;;;;;5042446;28;20056;-54
2023/07/18 03:43:24;;;;;;;19.92;6.15;;;12.90;99.90;;;;;;5043396;28;20128;-55
2023/07/18 03:45:51;;;;;;;16.33;5.95;;;12.90;99.90;;;;;;5042250;28;20426;-51
2023/07/18 03:48:17;;;;;;;14.35;6.20;;;12.80;99.90;;;;;;5042211;28;20041;-53
2023/07/18 03:50:43;;;;;;;15.23;6.13;;;13.20;99.90;;;;;;5042883;28;20083;-52
2023/07/18 03:53:08;;;;;;;14.38;5.70;;;12.80;99.90;;;;;;5046124;28;20487;-54
2023/07/18 03:55:34;;;;;;;14.90;6.45;;;12.80;99.90;;;;;;5047256;28;20044;-50
2023/07/18 03:58:00;;;;;;;13.52;6.20;;;12.80;99.90;;;;;;5046376;28;20096;-51
2023/07/18 04:00:26;;;;;;;15.75;6.13;;;12.80;99.90;;;;;;5046668;28;20076;-54
2023/07/18 04:02:51;;;;;;;15.18;6.15;;;12.80;99.90;;;;;;5045948;28;20227;-51
2023/07/18 04:05:18;;;;;;;16.38;6.40;;;12.80;99.90;;;;;;5047366;28;20037;-53
2023/07/18 04:07:45;;;;;;;12.82;5.65;;;12.90;99.90;;;;;;5046326;28;20233;-54
2023/07/18 04:10:11;;;;;;;14.25;6.35;;;12.90;99.90;;;;;;5046793;28;20057;-52
2023/07/18 04:12:38;;;;;;;13.65;6.10;;;12.80;99.90;;;;;;5047373;28;20297;-51
2023/07/18 04:15:06;;;;;;;13.40;5.95;;;13.00;99.90;;;;;;5050226;28;20570;-53
2023/07/18 04:17:32;;;;;;;17.00;6.78;;;12.90;99.90;;;;;;5051706;28;20037;-51
2023/07/18 04:20:01;;;;;;;13.25;6.13;;;12.90;99.90;;;;;;5046962;28;20047;-52
2023/07/18 04:22:29;;;;;;;14.82;6.05;;;13.00;99.90;;;;;;5046869;28;20466;-52
2023/07/18 04:24:55;;;;;;;16.13;6.72;;;13.00;99.90;;;;;;5046354;28;20041;-52
2023/07/18 04:27:21;;;;;;;18.52;6.30;;;13.00;99.90;;;;;;5046707;28;20563;-54
2023/07/18 04:29:47;;;;;;;13.13;6.68;;;12.90;99.90;;;;;;5061058;28;20128;-54
2023/07/18 04:32:13;;;;;;;13.32;5.97;;;13.00;99.90;;;;;;5044530;28;20041;-50
2023/07/18 04:34:38;;;;;;;18.65;6.70;;;13.10;99.90;;;;;;5045452;28;20530;-51
2023/07/18 04:37:04;;;;;;;18.52;6.43;;;13.10;99.90;;;;;;5045324;28;20103;-51
2023/07/18 04:39:30;;;;;;;17.70;6.85;;;13.10;99.90;;;;;;5044696;28;20773;-54
2023/07/18 04:41:56;;;;;;;13.65;6.25;;;13.10;99.90;;;;;;5045199;28;20044;-53
2023/07/18 04:44:22;;;;;;;13.40;6.13;;;13.10;99.90;;;;;;5045492;28;20052;-53
2023/07/18 04:46:48;;;;;;;13.55;6.22;;;13.40;99.90;;;;;;5045389;28;20041;-51
2023/07/18 04:49:14;;;;;;;13.23;5.97;;;13.20;99.90;;;;;;5045655;28;20056;-52
2023/07/18 04:51:39;;;;;;;17.40;6.75;;;13.30;99.90;;;;;;5046300;28;20045;-51
2023/07/18 04:54:06;;;;;;;11.70;5.63;;;13.30;99.90;;;;;;5061584;28;20097;-54
2023/07/18 04:56:32;;;;;;;13.60;5.53;;;13.40;99.90;;;;;;5045732;28;20045;-53
2023/07/18 04:58:59;;;;;;;13.63;5.93;;;13.50;99.90;;;;;;5045345;28;20048;-53
2023/07/18 05:01:24;;;;;;;13.52;5.78;;;13.50;99.90;;;;;;5045528;28;20045;-52
2023/07/18 05:03:50;;;;;;;12.63;6.13;;;13.90;99.90;;;;;;5045355;28;20502;-53
2023/07/18 05:06:16;;;;;;;11.68;6.18;;;13.60;99.90;;;;;;5045548;28;20048;-51
2023/07/18 05:08:41;;;;;;;13.32;6.22;;;13.60;99.90;;;;;;5044988;28;20052;-53
2023/07/18 05:11:07;;;;;;;18.48;6.65;;;13.60;99.90;;;;;;5045369;28;20053;-51
2023/07/18 05:13:32;;;;;;;19.63;6.78;;;13.60;99.90;;;;;;5045573;28;20045;-53
2023/07/18 05:16:01;;;;;;;13.25;6.35;;;13.60;99.90;;;;;;5055411;28;20045;-52
2023/07/18 05:18:27;;;;;;;13.00;6.45;;;13.70;99.90;;;;;;5044541;28;20045;-53
2023/07/18 05:20:59;;;;;;;12.02;6.07;;;13.70;99.90;;;;;;5045717;28;20055;-52
2023/07/18 05:23:24;;;;;;;12.43;5.72;;;13.70;99.90;;;;;;5043424;28;20136;-54
2023/07/18 05:25:50;;;;;;;11.40;6.43;;;13.90;99.90;;;;;;5047129;28;20450;-54
2023/07/18 05:28:16;;;;;;;13.48;6.03;;;13.70;99.90;;;;;;5056874;28;20547;-50
2023/07/18 05:30:41;;;;;;;15.90;6.18;;;13.70;99.90;;;;;;5044750;28;20057;-52
2023/07/18 05:33:07;;;;;;;14.95;6.35;;;13.90;99.90;;;;;;5044500;28;20136;-51
2023/07/18 05:35:33;;;;;;;13.00;6.40;;;14.00;99.90;;;;;;5060121;28;20119;-53
2023/07/18 05:38:01;;;;;;;14.52;6.05;;;14.10;99.90;;;;;;5044982;28;20055;-50
2023/07/18 05:40:27;;;;;;;14.00;6.70;;;14.20;99.90;;;;;;5045376;28;20602;-51
2023/07/18 05:42:53;;;;;;;13.40;6.05;;;14.30;99.90;;;;;;5060499;28;20459;-51
2023/07/18 05:45:19;;;;;;;14.05;6.43;;;14.40;99.90;;;;;;5044066;28;20072;-52
2023/07/18 05:47:45;;;;;;;11.73;6.28;;;14.40;99.90;;;;;;5044985;28;20045;-52
2023/07/18 05:50:11;;;;;;;16.70;6.53;;;14.50;99.90;;;;;;5043519;28;20069;-53
2023/07/18 05:52:38;;;;;;;9.27;5.85;;;14.70;99.90;;;;;;5045366;28;20044;-50
2023/07/18 05:55:04;;;;;;;10.85;5.68;;;14.80;99.90;;;;;;5045109;28;20052;-50
2023/07/18 05:57:30;;;;;;;11.88;5.90;;;14.90;99.90;;;;;;5044718;28;20080;-52
2023/07/18 05:59:56;;;;;;;14.27;5.88;;;15.00;99.90;;;;;;5043433;28;20088;-52
2023/07/18 06:02:22;;;;;;;12.15;5.93;;;15.00;99.90;;;;;;5045168;28;20037;-50
2023/07/18 06:04:48;;;;;;;13.52;5.55;;;15.10;99.90;;;;;;5044665;28;20055;-52
2023/07/18 06:07:14;;;;;;;16.48;6.00;;;15.20;99.90;;;;;;5043955;28;20464;-52
2023/07/18 06:09:40;;;;;;;13.05;5.45;;;15.40;99.90;;;;;;5044152;28;20057;-51
2023/07/18 06:12:06;;;;;;;13.85;5.53;;;15.60;99.90;;;;;;5044806;28;20052;-54
2023/07/18 06:14:33;;;;;;;12.25;5.47;;;15.70;99.90;;;;;;5045809;28;20037;-53
2023/07/18 06:16:59;;;;;;;12.48;6.13;;;15.90;99.90;;;;;;5052452;28;20236;-52
2023/07/18 06:19:25;;;;;;;14.57;5.85;;;16.00;99.90;;;;;;5044850;28;20511;-53
2023/07/18 06:21:51;;;;;;;13.45;6.18;;;16.10;99.90;;;;;;5043598;28;20475;-52
2023/07/18 06:24:16;;;;;;;17.38;6.07;;;16.20;99.90;;;;;;5043298;28;20163;-52
2023/07/18 06:26:48;;;;;;;12.02;5.50;;;16.40;99.90;;;;;;5043970;28;20033;-50
2023/07/18 06:29:18;;;;;;;13.40;5.57;;;16.50;99.90;;;;;;5044074;28;20127;-51
2023/07/18 06:31:45;;;;;;;18.17;5.93;;;16.30;99.90;;;;;;5043782;28;20059;-54
2023/07/18 06:34:11;;;;;;;19.17;6.35;;;16.10;99.90;;;;;;5044407;28;20041;-54
2023/07/18 06:36:36;;;;;;;19.52;5.85;;;16.20;99.90;;;;;;5051751;28;20051;-50
2023/07/18 06:39:03;;;;;;;16.45;5.70;;;15.80;99.90;;;;;;5063112;28;20437;-51
2023/07/18 06:41:29;;;;;;;11.07;5.68;;;15.80;99.90;;;;;;5062081;28;20049;-51
2023/07/18 06:43:54;;;;;;;15.68;6.03;;;15.70;99.90;;;;;;5063378;28;20115;-53
2023/07/18 06:46:21;;;;;;;16.42;6.05;;;15.80;99.90;;;;;;5061641;28;20099;-54
2023/07/18 06:48:47;;;;;;;17.30;6.10;;;15.90;99.90;;;;;;5063317;28;20047;-54
2023/07/18 06:51:14;;;;;;;14.90;5.95;;;16.00;99.90;;;;;;5062664;28;20340;-53
2023/07/18 06:53:40;;;;;;;13.80;5.70;;;16.00;99.90;;;;;;5063757;28;20813;-51
2023/07/18 06:56:06;;;;;;;12.70;5.32;;;16.10;99.90;;;;;;5063010;28;20275;-52
2023/07/18 06:58:32;;;;;;;14.48;5.47;;;16.30;99.90;;;;;;5062192;28;20458;-52
2023/07/18 07:00:57;;;;;;;12.98;5.82;;;16.40;99.90;;;;;;5077832;28;20040;-51
2023/07/18 07:03:23;;;;;;;12.45;6.03;;;16.60;99.90;;;;;;5063183;28;20044;-54
2023/07/18 07:05:48;;;;;;;14.80;6.15;;;16.80;99.90;;;;;;5063309;28;20447;-49
2023/07/18 07:08:18;;;;;;;14.45;6.40;;;16.90;99.90;;;;;;5062588;28;20115;-52
2023/07/18 07:10:44;;;;;;;15.02;5.85;;;17.00;99.90;;;;;;5063092;28;20544;-53
2023/07/18 07:13:10;;;;;;;12.45;5.68;;;17.00;99.90;;;;;;5063251;28;20044;-54
2023/07/18 07:15:36;;;;;;;17.73;6.60;;;17.00;99.90;;;;;;5055656;28;20045;-54
2023/07/18 07:18:03;;;;;;;18.23;6.03;;;17.20;99.90;;;;;;5043407;28;20874;-53
2023/07/18 07:20:33;;;;;;;15.23;6.05;;;17.50;99.90;;;;;;5049600;28;20051;-53
2023/07/18 07:23:00;;;;;;;14.45;5.95;;;17.70;99.90;;;;;;5063804;28;20079;-53
2023/07/18 07:25:27;;;;;;;14.70;5.63;;;17.90;99.90;;;;;;5063119;28;20425;-52
2023/07/18 07:27:53;;;;;;;19.40;7.05;;;18.10;99.90;;;;;;5062730;28;20041;-51
2023/07/18 07:30:19;;;;;;;14.77;5.75;;;18.10;99.90;;;;;;5062818;28;20186;-53
2023/07/18 07:32:51;;;;;;;15.80;6.43;;;18.10;99.90;;;;;;5061681;28;20149;-52
2023/07/18 07:35:18;;;;;;;17.13;6.50;;;18.10;99.90;;;;;;5063488;28;20166;-54
2023/07/18 07:37:44;;;;;;;13.68;6.22;;;18.00;99.90;;;;;;5059166;28;20387;-51
2023/07/18 07:40:11;;;;;;;14.00;6.22;;;18.10;99.90;;;;;;5060931;28;20533;-50
2023/07/18 07:42:42;;;;;;;18.77;6.63;;;18.30;99.90;;;;;;5055367;28;20090;-53
2023/07/18 07:45:08;;;;;;;17.77;6.85;;;18.40;99.90;;;;;;5062419;28;20028;-53
2023/07/18 07:47:35;;;;;;;18.05;6.53;;;18.60;99.90;;;;;;5063242;28;20072;-52
2023/07/18 07:50:02;;;;;;;17.73;6.43;;;18.90;99.90;;;;;;5056816;28;20529;-54
2023/07/18 07:52:28;;;;;;;16.00;5.82;;;19.00;99.90;;;;;;5063665;28;20048;-50
2023/07/18 07:54:54;;;;;;;12.18;5.90;;;19.20;99.90;;;;;;5062166;28;20521;-51
2023/07/18 07:57:20;;;;;;;15.18;5.40;;;19.70;99.90;;;;;;5062279;28;20569;-54
2023/07/18 07:59:45;;;;;;;14.68;6.28;;;19.90;99.90;;;;;;5042790;28;20131;-49
2023/07/18 08:02:12;;;;;;;15.75;6.40;;;20.00;99.90;;;;;;5042861;28;20053;-53
2023/07/18 08:04:39;;;;;;;13.52;5.45;;;19.90;99.90;;;;;;5041284;28;20055;-52
2023/07/18 08:07:05;;;;;;;14.20;4.97;;;19.90;99.90;;;;;;5042002;28;20141;-52
2023/07/18 08:09:31;;;;;;;12.90;5.82;;;19.90;99.90;;;;;;5043187;28;20427;-53
2023/07/18 08:11:57;;;;;;;11.52;5.47;;;19.90;99.90;;;;;;5041858;28;20045;-50
2023/07/18 08:14:22;;;;;;;14.63;5.32;;;20.10;99.90;;;;;;5042811;28;20037;-52
2023/07/18 08:16:49;;;;;;;15.85;4.90;;;20.10;99.90;;;;;;5051047;28;20045;-50
2023/07/18 08:19:15;;;;;;;14.23;4.78;;;20.10;99.90;;;;;;5042098;28;20164;-50
2023/07/18 08:21:41;;;;;;;14.27;4.47;;;20.00;99.90;;;;;;5042145;28;20052;-52
2023/07/18 08:24:07;;;;;;;15.93;4.82;;;20.10;99.90;;;;;;5042234;28;20049;-53
2023/07/18 08:26:32;;;;;;;19.92;5.22;;;20.00;99.90;;;;;;5043334;28;20072;-51
2023/07/18 08:28:58;;;;;;;17.17;4.78;;;19.80;99.90;;;;;;5042888;28;20510;-51
2023/07/18 08:31:24;;;;;;;13.75;4.57;;;19.70;99.90;;;;;;5050905;28;20415;-54
2023/07/18 08:33:50;;;;;;;17.63;4.85;;;19.80;99.90;;;;;;5052202;28;20033;-50
2023/07/18 08:36:15;;;;;;;13.70;4.82;;;19.90;99.90;;;;;;5052741;28;20040;-49
2023/07/18 08:38:46;;;;;;;11.27;3.83;;;20.00;99.90;;;;;;5059197;28;20052;-53
2023/07/18 08:41:13;;;;;;;14.98;4.38;;;20.10;99.90;;;;;;5054140;28;20075;-51
2023/07/18 08:43:39;;;;;;;12.77;3.85;;;20.30;99.90;;;;;;5044443;28;20045;-52
2023/07/18 08:46:05;;;;;;;13.15;3.22;;;20.60;99.90;;;;;;5044634;28;20621;-51
2023/07/18 08:48:31;;;;;;;10.93;3.28;;;20.70;99.90;;;;;;5045069;28;20045;-51
2023/07/18 08:50:59;;;;;;;9.23;3.00;;;20.80;99.90;;;;;;5047043;28;20127;-47
2023/07/18 08:53:25;;;;;;;11.00;3.00;;;20.90;99.90;;;;;;5056649;28;20112;-54
2023/07/18 08:55:52;;;;;;;11.63;2.80;;;21.00;99.90;;;;;;5053824;28;20048;-53
2023/07/18 08:58:20;;;;;;;8.38;2.30;;;21.00;99.90;;;;;;5054043;28;20044;-53
2023/07/18 09:00:46;;;;;;;8.60;2.70;;;21.10;99.90;;;;;;5052292;28;20048;-53
2023/07/18 09:03:12;;;;;;;;;;;21.20;99.90;;;;;;5048948;28;20037;-52
2023/07/18 09:05:38;;;;;;;8.43;2.20;;;21.20;99.90;;;;;;5046486;28;25144;-53
2023/07/18 09:08:05;;;;;;;7.97;2.13;;;21.30;99.90;;;;;;5045763;28;20067;-51
2023/07/18 09:10:32;;;;;;;8.90;2.63;;;21.50;99.90;;;;;;5068666;28;20057;-51
2023/07/18 09:13:02;;;;;;;11.45;2.60;;;21.40;99.90;;;;;;5057858;28;20041;-49
2023/07/18 09:15:29;;;;;;;13.00;2.67;;;21.40;99.90;;;;;;5054135;28;20562;-50
2023/07/18 09:17:55;;;;;;;11.77;2.72;;;21.30;99.90;;;;;;5045562;28;20080;-50
2023/07/18 09:20:22;;;;;;;9.80;3.13;;;21.20;99.90;;;;;;5047904;28;20037;-50
2023/07/18 09:22:48;;;;;;;7.47;2.75;;;21.00;99.90;;;;;;5055677;28;20049;-53
2023/07/18 09:25:15;;;;;;;10.52;2.90;;;21.00;99.90;;;;;;5054241;28;20044;-51
2023/07/18 09:27:40;;;;;;;9.75;2.75;;;21.20;99.90;;;;;;5045264;28;20484;-51
2023/07/18 09:30:07;;;;;;;9.35;2.88;;;21.40;99.90;;;;;;5044212;28;20055;-50
2023/07/18 09:32:33;;;;;;;6.90;2.50;;;21.10;99.90;;;;;;5050181;28;20041;-53
2023/07/18 09:35:00;;;;;;;11.30;2.65;;;21.40;99.90;;;;;;5056782;28;20044;-54
2023/07/18 09:37:26;;;;;;;7.63;2.70;;;21.60;99.90;;;;;;5059714;28;20076;-52
2023/07/18 09:39:54;;;;;;;7.43;2.63;;;21.80;99.90;;;;;;5064715;28;20048;-52
2023/07/18 09:42:21;;;;;;;7.30;2.80;;;21.90;99.90;;;;;;5065329;28;20147;-56
2023/07/18 09:44:49;;;;;;;9.77;3.10;;;21.90;99.90;;;;;;5064093;28;20052;-51
2023/07/18 09:47:15;;;;;;;9.32;3.38;;;22.00;99.90;;;;;;5064868;28;20496;-51
2023/07/18 09:49:43;;;;;;;7.90;2.60;;;22.00;99.90;;;;;;5064618;28;20156;-51
2023/07/18 09:52:09;;;;;;;8.45;2.97;;;21.80;99.90;;;;;;5065511;28;20640;-51
2023/07/18 09:54:35;;;;;;;6.70;2.50;;;21.50;99.90;;;;;;5064913;28;20044;-50
2023/07/18 09:57:10;;;;;;;7.85;2.85;;;21.50;99.90;;;;;;5064168;28;20051;-51
2023/07/18 09:59:37;;;;;;;9.40;3.15;;;21.40;99.90;;;;;;5064216;28;20101;-51
2023/07/18 10:02:08;;;;;;;10.27;2.83;;;21.30;99.90;;;;;;5058543;28;20493;-49
2023/07/18 10:04:34;;;;;;;10.20;2.92;;;21.30;99.90;;;;;;5055151;28;20396;-52
2023/07/18 10:07:02;;;;;;;11.05;2.70;;;21.20;99.90;;;;;;5063164;28;20041;-55
2023/07/18 10:09:28;;;;;;;6.65;2.35;;;21.20;99.90;;;;;;5044999;28;20071;-54
2023/07/18 10:12:03;;;;;;;15.63;2.83;;;21.40;99.90;;;;;;5044641;28;20059;-54
2023/07/18 10:14:59;;;;;;;11.25;2.42;;;21.60;99.90;;;;;;5047836;28;20128;-54
2023/07/18 10:17:41;;;;;;;9.50;2.58;;;21.60;99.90;;;;;;5074467;28;20059;-54
2023/07/18 10:20:24;;;;;;;10.20;2.78;;;21.50;99.90;;;;;;5084363;28;20051;-60
2023/07/18 10:22:50;;;;;;;14.50;3.00;;;21.30;99.90;;;;;;5083846;28;20036;-61
2023/07/18 10:25:19;;;;;;;18.83;2.80;;;21.20;99.90;;;;;;5084662;28;20044;-60
2023/07/18 10:27:46;;;;;;;9.35;2.40;;;21.00;99.90;;;;;;5074314;28;20040;-58
2023/07/18 10:30:15;;;;;;;9.35;2.58;;;20.90;99.90;;;;;;5063342;28;20063;-57
2023/07/18 10:32:43;;;;;;;13.30;2.65;;;21.00;99.90;;;;;;5059102;28;20041;-57
2023/07/18 10:35:10;;;;;;;8.98;3.00;;;21.30;99.90;;;;;;5045694;28;20125;-56
2023/07/18 10:37:37;;;;;;;11.23;3.47;;;21.60;99.90;;;;;;5053339;28;20090;-56
2023/07/18 10:40:05;;;;;;;9.07;2.95;;;21.80;99.90;;;;;;5059184;28;20089;-56
2023/07/18 10:42:33;;;;;;;8.45;2.17;;;21.90;99.90;;;;;;5065125;28;20132;-57
2023/07/18 10:45:06;;;;;;;8.20;2.38;;;22.00;99.90;;;;;;5043766;28;20300;-56
2023/07/18 10:47:37;;;;;;;8.75;2.30;;;22.00;99.90;;;;;;5042834;28;20041;-55
2023/07/18 10:50:04;;;;;;;8.40;2.40;;;22.20;99.90;;;;;;5043577;28;20465;-54
2023/07/18 10:52:32;;;;;;;9.65;2.45;;;22.50;99.90;;;;;;5041118;28;20053;-55
2023/07/18 10:54:58;;;;;;;10.13;2.38;;;22.70;99.90;;;;;;5043721;28;20051;-54
2023/07/18 10:57:32;;;;;;;8.55;2.20;;;22.80;99.60;;;;;;5043992;28;20102;-55
2023/07/18 10:59:59;;;;;;;10.48;2.47;;;23.10;98.80;;;;;;5041838;28;20041;-55
2023/07/18 11:02:27;;;;;;;8.23;2.20;;;23.30;98.80;;;;;;5043178;28;20049;-56
2023/07/18 11:04:53;;;;;;;6.10;1.85;;;23.50;98.70;;;;;;5044309;28;20049;-55
2023/07/18 11:07:40;;;;;;;7.78;2.08;;;23.60;97.20;;;;;;5043961;28;20082;-54
2023/07/18 11:10:08;;;;;;;7.25;2.40;;;23.30;97.10;;;;;;5044384;28;20067;-54
2023/07/18 11:12:33;;;;;;;6.75;2.25;;;23.10;97.30;;;;;;5044577;28;20514;-54
2023/07/18 11:14:59;;;;;;;7.03;1.90;;;23.00;97.70;;;;;;5054645;28;20076;-54
2023/07/18 11:17:25;;;;;;;7.63;2.33;;;23.00;97.00;;;;;;5062493;28;20410;-54
2023/07/18 11:19:56;;;;;;;5.32;1.75;;;22.90;97.50;;;;;;5055959;28;20055;-54
2023/07/18 11:22:22;;;;;;;10.90;2.28;;;22.90;97.50;;;;;;5043999;28;20041;-53
2023/07/18 11:24:49;;;;;;;8.82;2.20;;;22.90;97.60;;;;;;5043394;28;20724;-54
2023/07/18 11:27:19;;;;;;;8.52;2.20;;;22.90;97.70;;;;;;5042513;28;20120;-54
2023/07/18 11:30:08;;;;;;;9.68;1.85;;;22.80;97.60;;;;;;5050110;28;20044;-54
2023/07/18 11:32:42;;;;;;;6.47;2.10;;;22.70;97.20;;;;;;5044687;28;20486;-54
2023/07/18 11:35:09;;;;;;;7.30;1.70;;;22.60;96.70;;;;;;5043960;28;20044;-54
2023/07/18 11:37:38;;;;;;;7.80;2.13;;;22.50;97.20;;;;;;5043505;28;20041;-54
2023/07/18 11:40:05;;;;;;;6.07;1.90;;;22.30;97.40;;;;;;5043747;28;20056;-54
2023/07/18 11:42:50;;;;;;;7.32;2.05;;;22.10;97.60;;;;;;5043961;28;20048;-54
2023/07/18 11:45:16;;;;;;;;;;;22.00;97.90;;;;;;5043604;28;20041;-54
2023/07/18 11:47:46;;;;;;;9.75;2.17;;;21.90;98.20;;;;;;5044013;28;19932;-54
2023/07/18 11:50:12;;;;;;;10.73;2.35;;;21.90;98.60;;;;;;5043823;28;20069;-54
2023/07/18 11:52:40;;;;;;;6.45;2.00;;;21.80;98.90;;;;;;5049345;28;20040;-54
2023/07/18 11:55:06;;;;;;;7.43;2.00;;;21.90;99.20;;;;;;5062786;28;20068;-54
2023/07/18 11:57:32;;;;;;;6.80;2.20;;;21.90;99.30;;;;;;5062595;28;20068;-53
2023/07/18 11:59:58;;;;;;;8.57;2.03;;;21.80;99.20;;;;;;5060295;28;20044;-55
2023/07/18 12:02:24;;;;;;;9.93;2.03;;;21.80;99.10;;;;;;5061700;28;22118;-54
2023/07/18 12:04:50;;;;;;;6.70;2.13;;;21.80;99.10;;;;;;5058889;28;20049;-54
2023/07/18 12:07:16;;;;;;;6.07;1.70;;;21.80;99.20;;;;;;5062456;28;20049;-57
2023/07/18 12:09:41;;;;;;;7.18;1.80;;;21.70;99.00;;;;;;5062725;28;20057;-54
2023/07/18 12:12:07;;;;;;;7.15;2.20;;;21.80;99.20;;;;;;5063146;28;20411;-54
2023/07/18 12:14:34;;;;;;;6.15;1.85;;;21.90;99.20;;;;;;5059671;28;20504;-54
2023/07/18 12:17:00;;;;;;;6.80;1.73;;;22.00;99.20;;;;;;5057887;28;20048;-56
2023/07/18 12:19:25;;;;;;;6.47;1.88;;;22.00;99.00;;;;;;5066586;28;20078;-55
2023/07/18 12:21:51;;;;;;;7.53;2.25;;;22.00;99.00;;;;;;5063995;28;20058;-54
2023/07/18 12:24:18;;;;;;;6.65;1.85;;;21.90;98.80;;;;;;5066472;28;20033;-56
2023/07/18 12:26:45;;;;;;;8.02;2.10;;;21.90;98.90;;;;;;5057300;28;20064;-54
2023/07/18 12:29:15;;;;;;;7.22;1.70;;;21.80;99.10;;;;;;5066069;28;20080;-54
2023/07/18 12:31:45;;;;;;;4.75;1.48;;;21.80;99.00;;;;;;5066496;28;20092;-55
2023/07/18 12:34:10;;;;;;;6.03;1.60;;;21.80;98.80;;;;;;5060923;28;20698;-56
2023/07/18 12:36:37;;;;;;;7.93;1.58;;;21.60;98.70;;;;;;5066190;28;20040;-54
2023/07/18 12:39:03;;;;;;;7.50;1.77;;;21.60;98.90;;;;;;5065034;28;20048;-57